sensor_id;sensor_type;location;lat;lon;timestamp;P1;durP1;ratioP1;P2;durP2;ratioP2
64498;SDS011;51087;55.718;21.122;2022-09-23T00:00:43;4.00;;;2.10;;
64498;SDS011;51087;55.718;21.122;2022-09-23T00:03:10;3.70;;;1.92;;
64498;SDS011;51087;55.718;21.122;2022-09-23T00:05:36;3.45;;;2.03;;
64498;SDS011;51087;55.718;21.122;2022-09-23T00:08:02;4.88;;;2.10;;
64498;SDS011;51087;55.718;21.122;2022-09-23T00:10:28;4.03;;;2.38;;
64498;SDS011;51087;55.718;21.122;2022-09-23T00:12:57;3.00;;;2.10;;
64498;SDS011;51087;55.718;21.122;2022-09-23T00:15:23;5.18;;;2.20;;
64498;SDS011;51087;55.718;21.122;2022-09-23T00:17:53;3.30;;;2.13;;
64498;SDS011;51087;55.718;21.122;2022-09-23T00:20:18;2.85;;;2.10;;
64498;SDS011;51087;55.718;21.122;2022-09-23T00:22:44;3.72;;;2.38;;
64498;SDS011;51087;55.718;21.122;2022-09-23T00:25:09;5.03;;;2.60;;
64498;SDS011;51087;55.718;21.122;2022-09-23T00:27:36;3.58;;;2.22;;
64498;SDS011;51087;55.718;21.122;2022-09-23T00:30:03;4.15;;;2.63;;
64498;SDS011;51087;55.718;21.122;2022-09-23T00:32:29;5.22;;;3.20;;
64498;SDS011;51087;55.718;21.122;2022-09-23T00:34:55;7.25;;;2.40;;
64498;SDS011;51087;55.718;21.122;2022-09-23T00:37:20;4.05;;;2.92;;
64498;SDS011;51087;55.718;21.122;2022-09-23T00:39:46;3.50;;;2.30;;
64498;SDS011;51087;55.718;21.122;2022-09-23T00:42:12;3.42;;;2.30;;
64498;SDS011;51087;55.718;21.122;2022-09-23T00:47:28;3.53;;;2.60;;
64498;SDS011;51087;55.718;21.122;2022-09-23T00:50:05;4.18;;;2.85;;
64498;SDS011;51087;55.718;21.122;2022-09-23T00:52:50;3.05;;;2.25;;
64498;SDS011;51087;55.718;21.122;2022-09-23T00:55:28;2.92;;;2.22;;
64498;SDS011;51087;55.718;21.122;2022-09-23T00:57:58;3.45;;;2.20;;
64498;SDS011;51087;55.718;21.122;2022-09-23T01:00:25;3.20;;;2.30;;
64498;SDS011;51087;55.718;21.122;2022-09-23T01:02:51;3.40;;;2.35;;
64498;SDS011;51087;55.718;21.122;2022-09-23T01:05:17;4.22;;;2.83;;
64498;SDS011;51087;55.718;21.122;2022-09-23T01:07:43;3.30;;;2.45;;
64498;SDS011;51087;55.718;21.122;2022-09-23T01:10:09;14.80;;;10.25;;
64498;SDS011;51087;55.718;21.122;2022-09-23T01:15:27;4.40;;;3.20;;
64498;SDS011;51087;55.718;21.122;2022-09-23T01:18:39;4.88;;;2.50;;
64498;SDS011;51087;55.718;21.122;2022-09-23T01:21:02;3.20;;;2.33;;
64498;SDS011;51087;55.718;21.122;2022-09-23T01:32:35;3.30;;;2.42;;
64498;SDS011;51087;55.718;21.122;2022-09-23T01:40:47;3.90;;;2.67;;
64498;SDS011;51087;55.718;21.122;2022-09-23T01:43:56;4.43;;;2.83;;
64498;SDS011;51087;55.718;21.122;2022-09-23T01:46:40;5.50;;;2.95;;
64498;SDS011;51087;55.718;21.122;2022-09-23T01:52:02;6.85;;;3.05;;
64498;SDS011;51087;55.718;21.122;2022-09-23T01:57:17;3.47;;;2.55;;
64498;SDS011;51087;55.718;21.122;2022-09-23T01:59:49;4.88;;;2.80;;
64498;SDS011;51087;55.718;21.122;2022-09-23T02:02:25;7.15;;;3.33;;
64498;SDS011;51087;55.718;21.122;2022-09-23T02:05:04;5.15;;;3.05;;
64498;SDS011;51087;55.718;21.122;2022-09-23T02:07:57;5.90;;;2.77;;
64498;SDS011;51087;55.718;21.122;2022-09-23T02:10:25;4.25;;;2.47;;
64498;SDS011;51087;55.718;21.122;2022-09-23T02:13:01;4.20;;;2.40;;
64498;SDS011;51087;55.718;21.122;2022-09-23T02:15:31;4.50;;;2.75;;
64498;SDS011;51087;55.718;21.122;2022-09-23T02:18:11;9.20;;;3.10;;
64498;SDS011;51087;55.718;21.122;2022-09-23T02:20:39;13.25;;;7.60;;
64498;SDS011;51087;55.718;21.122;2022-09-23T02:23:13;13.70;;;7.88;;
64498;SDS011;51087;55.718;21.122;2022-09-23T02:28:28;4.63;;;2.90;;
64498;SDS011;51087;55.718;21.122;2022-09-23T02:31:30;4.65;;;2.58;;
64498;SDS011;51087;55.718;21.122;2022-09-23T02:34:13;4.03;;;2.70;;
64498;SDS011;51087;55.718;21.122;2022-09-23T02:36:52;3.88;;;2.35;;
64498;SDS011;51087;55.718;21.122;2022-09-23T02:42:15;5.28;;;2.83;;
64498;SDS011;51087;55.718;21.122;2022-09-23T02:44:54;4.47;;;2.60;;
64498;SDS011;51087;55.718;21.122;2022-09-23T02:47:20;5.30;;;2.90;;
64498;SDS011;51087;55.718;21.122;2022-09-23T02:49:48;3.03;;;2.40;;
64498;SDS011;51087;55.718;21.122;2022-09-23T02:52:14;5.97;;;2.67;;
64498;SDS011;51087;55.718;21.122;2022-09-23T02:54:41;8.65;;;2.95;;
64498;SDS011;51087;55.718;21.122;2022-09-23T02:57:07;3.30;;;2.65;;
64498;SDS011;51087;55.718;21.122;2022-09-23T02:59:34;3.67;;;2.45;;
64498;SDS011;51087;55.718;21.122;2022-09-23T03:18:24;8.15;;;2.80;;
64498;SDS011;51087;55.718;21.122;2022-09-23T03:21:10;3.28;;;2.40;;
64498;SDS011;51087;55.718;21.122;2022-09-23T03:23:41;4.63;;;2.80;;
64498;SDS011;51087;55.718;21.122;2022-09-23T03:26:11;3.20;;;2.45;;
64498;SDS011;51087;55.718;21.122;2022-09-23T03:28:41;4.03;;;2.50;;
64498;SDS011;51087;55.718;21.122;2022-09-23T03:31:09;4.68;;;2.50;;
64498;SDS011;51087;55.718;21.122;2022-09-23T03:33:36;3.63;;;2.70;;
64498;SDS011;51087;55.718;21.122;2022-09-23T03:36:06;5.57;;;2.75;;
64498;SDS011;51087;55.718;21.122;2022-09-23T03:38:54;4.35;;;2.67;;
64498;SDS011;51087;55.718;21.122;2022-09-23T03:41:31;3.67;;;2.30;;
64498;SDS011;51087;55.718;21.122;2022-09-23T03:44:01;4.13;;;2.78;;
64498;SDS011;51087;55.718;21.122;2022-09-23T03:46:27;4.65;;;2.80;;
64498;SDS011;51087;55.718;21.122;2022-09-23T03:49:03;3.28;;;2.65;;
64498;SDS011;51087;55.718;21.122;2022-09-23T03:51:35;4.53;;;2.55;;
64498;SDS011;51087;55.718;21.122;2022-09-23T03:54:00;4.10;;;2.78;;
64498;SDS011;51087;55.718;21.122;2022-09-23T03:56:26;6.47;;;2.72;;
64498;SDS011;51087;55.718;21.122;2022-09-23T03:58:51;3.95;;;2.55;;
64498;SDS011;51087;55.718;21.122;2022-09-23T04:01:17;4.68;;;2.70;;
64498;SDS011;51087;55.718;21.122;2022-09-23T04:03:42;6.85;;;3.17;;
64498;SDS011;51087;55.718;21.122;2022-09-23T04:06:08;4.43;;;2.72;;
64498;SDS011;51087;55.718;21.122;2022-09-23T04:08:33;4.00;;;2.50;;
64498;SDS011;51087;55.718;21.122;2022-09-23T04:11:02;3.55;;;2.60;;
64498;SDS011;51087;55.718;21.122;2022-09-23T04:13:29;3.85;;;2.42;;
64498;SDS011;51087;55.718;21.122;2022-09-23T04:15:55;3.28;;;2.42;;
64498;SDS011;51087;55.718;21.122;2022-09-23T04:18:20;4.03;;;2.53;;
64498;SDS011;51087;55.718;21.122;2022-09-23T04:20:46;15.18;;;3.90;;
64498;SDS011;51087;55.718;21.122;2022-09-23T04:23:12;6.72;;;3.55;;
64498;SDS011;51087;55.718;21.122;2022-09-23T04:25:46;4.95;;;3.35;;
64498;SDS011;51087;55.718;21.122;2022-09-23T04:28:12;6.65;;;3.53;;
64498;SDS011;51087;55.718;21.122;2022-09-23T04:30:39;5.15;;;3.38;;
64498;SDS011;51087;55.718;21.122;2022-09-23T04:33:08;5.68;;;3.03;;
64498;SDS011;51087;55.718;21.122;2022-09-23T04:35:35;7.53;;;3.80;;
64498;SDS011;51087;55.718;21.122;2022-09-23T04:38:02;6.72;;;3.60;;
64498;SDS011;51087;55.718;21.122;2022-09-23T04:40:28;7.22;;;3.22;;
64498;SDS011;51087;55.718;21.122;2022-09-23T04:42:54;7.32;;;3.58;;
64498;SDS011;51087;55.718;21.122;2022-09-23T04:45:20;7.07;;;3.83;;
64498;SDS011;51087;55.718;21.122;2022-09-23T04:47:45;14.88;;;3.72;;
64498;SDS011;51087;55.718;21.122;2022-09-23T04:50:11;11.80;;;4.32;;
64498;SDS011;51087;55.718;21.122;2022-09-23T04:52:36;11.32;;;4.25;;
64498;SDS011;51087;55.718;21.122;2022-09-23T04:55:02;14.23;;;4.95;;
64498;SDS011;51087;55.718;21.122;2022-09-23T04:57:27;14.00;;;4.47;;
64498;SDS011;51087;55.718;21.122;2022-09-23T04:59:53;13.07;;;4.95;;
64498;SDS011;51087;55.718;21.122;2022-09-23T05:02:21;11.75;;;4.85;;
64498;SDS011;51087;55.718;21.122;2022-09-23T05:04:46;10.18;;;5.07;;
64498;SDS011;51087;55.718;21.122;2022-09-23T05:07:12;14.40;;;5.70;;
64498;SDS011;51087;55.718;21.122;2022-09-23T05:09:37;18.90;;;6.82;;
64498;SDS011;51087;55.718;21.122;2022-09-23T05:12:03;17.98;;;6.70;;
64498;SDS011;51087;55.718;21.122;2022-09-23T05:14:29;20.08;;;7.68;;
64498;SDS011;51087;55.718;21.122;2022-09-23T05:16:54;14.85;;;6.45;;
64498;SDS011;51087;55.718;21.122;2022-09-23T05:19:20;17.70;;;6.50;;
64498;SDS011;51087;55.718;21.122;2022-09-23T05:21:45;23.35;;;7.18;;
64498;SDS011;51087;55.718;21.122;2022-09-23T05:24:11;16.25;;;7.32;;
64498;SDS011;51087;55.718;21.122;2022-09-23T05:26:36;15.68;;;6.20;;
64498;SDS011;51087;55.718;21.122;2022-09-23T05:29:02;15.35;;;5.00;;
64498;SDS011;51087;55.718;21.122;2022-09-23T05:31:29;13.35;;;4.90;;
64498;SDS011;51087;55.718;21.122;2022-09-23T05:33:56;12.88;;;5.50;;
64498;SDS011;51087;55.718;21.122;2022-09-23T05:36:23;10.93;;;4.68;;
64498;SDS011;51087;55.718;21.122;2022-09-23T05:38:50;16.02;;;5.75;;
64498;SDS011;51087;55.718;21.122;2022-09-23T05:41:17;14.10;;;4.32;;
64498;SDS011;51087;55.718;21.122;2022-09-23T05:43:44;11.45;;;4.22;;
64498;SDS011;51087;55.718;21.122;2022-09-23T05:46:12;13.80;;;5.57;;
64498;SDS011;51087;55.718;21.122;2022-09-23T05:48:42;12.52;;;6.07;;
64498;SDS011;51087;55.718;21.122;2022-09-23T05:51:15;22.30;;;5.32;;
64498;SDS011;51087;55.718;21.122;2022-09-23T05:53:44;16.65;;;5.22;;
64498;SDS011;51087;55.718;21.122;2022-09-23T05:56:12;15.85;;;5.18;;
64498;SDS011;51087;55.718;21.122;2022-09-23T05:58:39;19.95;;;5.68;;
64498;SDS011;51087;55.718;21.122;2022-09-23T06:01:11;22.42;;;6.22;;
64498;SDS011;51087;55.718;21.122;2022-09-23T06:03:37;19.73;;;5.93;;
64498;SDS011;51087;55.718;21.122;2022-09-23T06:06:03;9.15;;;5.20;;
64498;SDS011;51087;55.718;21.122;2022-09-23T06:08:30;21.83;;;5.93;;
64498;SDS011;51087;55.718;21.122;2022-09-23T06:10:57;15.52;;;6.28;;
64498;SDS011;51087;55.718;21.122;2022-09-23T06:13:31;15.73;;;6.10;;
64498;SDS011;51087;55.718;21.122;2022-09-23T06:15:57;21.10;;;7.03;;
64498;SDS011;51087;55.718;21.122;2022-09-23T06:18:22;20.88;;;6.93;;
64498;SDS011;51087;55.718;21.122;2022-09-23T06:20:48;19.20;;;7.32;;
64498;SDS011;51087;55.718;21.122;2022-09-23T06:23:13;20.25;;;7.65;;
64498;SDS011;51087;55.718;21.122;2022-09-23T06:25:39;26.70;;;7.68;;
64498;SDS011;51087;55.718;21.122;2022-09-23T06:28:04;24.45;;;7.50;;
64498;SDS011;51087;55.718;21.122;2022-09-23T06:30:36;17.33;;;6.47;;
64498;SDS011;51087;55.718;21.122;2022-09-23T06:33:03;14.55;;;7.53;;
64498;SDS011;51087;55.718;21.122;2022-09-23T06:35:29;19.98;;;6.70;;
64498;SDS011;51087;55.718;21.122;2022-09-23T06:37:56;17.67;;;7.32;;
64498;SDS011;51087;55.718;21.122;2022-09-23T06:40:22;16.58;;;7.25;;
64498;SDS011;51087;55.718;21.122;2022-09-23T06:42:47;15.80;;;6.45;;
64498;SDS011;51087;55.718;21.122;2022-09-23T06:45:23;24.08;;;6.65;;
64498;SDS011;51087;55.718;21.122;2022-09-23T06:47:53;30.15;;;6.97;;
64498;SDS011;51087;55.718;21.122;2022-09-23T06:50:26;21.87;;;6.87;;
64498;SDS011;51087;55.718;21.122;2022-09-23T06:52:55;24.90;;;6.18;;
64498;SDS011;51087;55.718;21.122;2022-09-23T06:55:22;18.85;;;6.43;;
64498;SDS011;51087;55.718;21.122;2022-09-23T06:57:48;24.00;;;6.13;;
64498;SDS011;51087;55.718;21.122;2022-09-23T07:00:14;20.48;;;6.45;;
64498;SDS011;51087;55.718;21.122;2022-09-23T07:02:40;19.52;;;6.45;;
64498;SDS011;51087;55.718;21.122;2022-09-23T07:05:08;19.25;;;6.22;;
64498;SDS011;51087;55.718;21.122;2022-09-23T07:07:34;18.08;;;5.88;;
64498;SDS011;51087;55.718;21.122;2022-09-23T07:10:04;20.45;;;6.05;;
64498;SDS011;51087;55.718;21.122;2022-09-23T07:12:31;18.58;;;6.60;;
64498;SDS011;51087;55.718;21.122;2022-09-23T07:14:57;20.02;;;6.28;;
64498;SDS011;51087;55.718;21.122;2022-09-23T07:17:22;19.17;;;6.20;;
64498;SDS011;51087;55.718;21.122;2022-09-23T07:19:48;11.73;;;5.18;;
64498;SDS011;51087;55.718;21.122;2022-09-23T07:22:15;12.93;;;4.25;;
64498;SDS011;51087;55.718;21.122;2022-09-23T07:24:41;9.80;;;3.00;;
64498;SDS011;51087;55.718;21.122;2022-09-23T07:27:08;8.73;;;3.25;;
64498;SDS011;51087;55.718;21.122;2022-09-23T07:29:33;12.05;;;3.80;;
64498;SDS011;51087;55.718;21.122;2022-09-23T07:31:59;15.23;;;3.95;;
64498;SDS011;51087;55.718;21.122;2022-09-23T07:34:24;11.05;;;3.97;;
64498;SDS011;51087;55.718;21.122;2022-09-23T07:36:50;6.72;;;3.30;;
64498;SDS011;51087;55.718;21.122;2022-09-23T07:39:18;7.30;;;3.28;;
64498;SDS011;51087;55.718;21.122;2022-09-23T07:41:46;5.40;;;3.03;;
64498;SDS011;51087;55.718;21.122;2022-09-23T07:44:12;7.28;;;2.85;;
64498;SDS011;51087;55.718;21.122;2022-09-23T07:46:37;4.50;;;2.50;;
64498;SDS011;51087;55.718;21.122;2022-09-23T07:49:04;6.90;;;2.80;;
64498;SDS011;51087;55.718;21.122;2022-09-23T07:51:31;5.00;;;1.30;;
64498;SDS011;51087;55.718;21.122;2022-09-23T07:54:01;11.65;;;4.63;;
64498;SDS011;51087;55.718;21.122;2022-09-23T07:56:27;5.28;;;3.28;;
64498;SDS011;51087;55.718;21.122;2022-09-23T07:58:54;4.20;;;1.65;;
64498;SDS011;51087;55.718;21.122;2022-09-23T08:01:38;13.68;;;6.30;;
64498;SDS011;51087;55.718;21.122;2022-09-23T08:04:13;2.38;;;1.33;;
64498;SDS011;51087;55.718;21.122;2022-09-23T08:06:47;3.25;;;1.40;;
64498;SDS011;51087;55.718;21.122;2022-09-23T08:09:15;13.45;;;1.60;;
64498;SDS011;51087;55.718;21.122;2022-09-23T08:11:42;7.60;;;2.28;;
64498;SDS011;51087;55.718;21.122;2022-09-23T08:14:08;5.90;;;1.50;;
64498;SDS011;51087;55.718;21.122;2022-09-23T08:16:40;7.53;;;1.70;;
64498;SDS011;51087;55.718;21.122;2022-09-23T08:19:07;2.97;;;1.63;;
64498;SDS011;51087;55.718;21.122;2022-09-23T08:21:33;2.47;;;1.50;;
64498;SDS011;51087;55.718;21.122;2022-09-23T08:23:58;4.75;;;1.52;;
64498;SDS011;51087;55.718;21.122;2022-09-23T08:26:24;4.95;;;1.60;;
64498;SDS011;51087;55.718;21.122;2022-09-23T08:28:50;2.38;;;1.48;;
64498;SDS011;51087;55.718;21.122;2022-09-23T08:31:18;3.88;;;1.60;;
64498;SDS011;51087;55.718;21.122;2022-09-23T08:33:43;1.90;;;1.35;;
64498;SDS011;51087;55.718;21.122;2022-09-23T08:36:09;6.15;;;2.00;;
64498;SDS011;51087;55.718;21.122;2022-09-23T08:38:35;10.30;;;2.65;;
64498;SDS011;51087;55.718;21.122;2022-09-23T08:41:10;4.63;;;1.50;;
64498;SDS011;51087;55.718;21.122;2022-09-23T08:43:42;2.60;;;1.00;;
64498;SDS011;51087;55.718;21.122;2022-09-23T08:46:11;2.80;;;1.00;;
64498;SDS011;51087;55.718;21.122;2022-09-23T08:51:13;1.02;;;0.85;;
64498;SDS011;51087;55.718;21.122;2022-09-23T08:53:40;2.58;;;1.23;;
64498;SDS011;51087;55.718;21.122;2022-09-23T08:56:11;1.83;;;0.90;;
64498;SDS011;51087;55.718;21.122;2022-09-23T08:58:45;1.20;;;1.02;;
64498;SDS011;51087;55.718;21.122;2022-09-23T09:04:09;3.05;;;1.13;;
64498;SDS011;51087;55.718;21.122;2022-09-23T09:06:55;1.42;;;0.93;;
64498;SDS011;51087;55.718;21.122;2022-09-23T09:09:31;4.43;;;1.20;;
64498;SDS011;51087;55.718;21.122;2022-09-23T09:12:03;3.45;;;0.90;;
64498;SDS011;51087;55.718;21.122;2022-09-23T09:14:39;1.25;;;0.85;;
64498;SDS011;51087;55.718;21.122;2022-09-23T09:22:59;1.15;;;0.90;;
64498;SDS011;51087;55.718;21.122;2022-09-23T09:25:48;2.40;;;0.85;;
64498;SDS011;51087;55.718;21.122;2022-09-23T09:30:43;0.77;;;0.70;;
64498;SDS011;51087;55.718;21.122;2022-09-23T09:33:13;1.63;;;1.40;;
64498;SDS011;51087;55.718;21.122;2022-09-23T09:38:09;2.05;;;0.88;;
64498;SDS011;51087;55.718;21.122;2022-09-23T09:40:35;1.42;;;0.70;;
64498;SDS011;51087;55.718;21.122;2022-09-23T09:43:10;1.42;;;1.00;;
64498;SDS011;51087;55.718;21.122;2022-09-23T09:45:49;1.30;;;1.02;;
64498;SDS011;51087;55.718;21.122;2022-09-23T09:48:34;0.82;;;0.70;;
64498;SDS011;51087;55.718;21.122;2022-09-23T09:51:16;2.72;;;1.00;;
64498;SDS011;51087;55.718;21.122;2022-09-23T09:53:48;1.30;;;0.80;;
64498;SDS011;51087;55.718;21.122;2022-09-23T09:56:18;0.93;;;0.70;;
64498;SDS011;51087;55.718;21.122;2022-09-23T09:58:54;1.17;;;0.70;;
64498;SDS011;51087;55.718;21.122;2022-09-23T10:01:30;1.00;;;0.80;;
64498;SDS011;51087;55.718;21.122;2022-09-23T10:03:58;1.40;;;0.77;;
64498;SDS011;51087;55.718;21.122;2022-09-23T10:06:29;0.80;;;0.80;;
64498;SDS011;51087;55.718;21.122;2022-09-23T10:09:14;0.60;;;0.60;;
64498;SDS011;51087;55.718;21.122;2022-09-23T10:12:00;2.58;;;0.80;;
64498;SDS011;51087;55.718;21.122;2022-09-23T10:14:28;2.25;;;0.73;;
64498;SDS011;51087;55.718;21.122;2022-09-23T10:17:00;1.10;;;0.80;;
64498;SDS011;51087;55.718;21.122;2022-09-23T10:19:29;7.90;;;0.80;;
64498;SDS011;51087;55.718;21.122;2022-09-23T10:21:58;3.72;;;0.70;;
64498;SDS011;51087;55.718;21.122;2022-09-23T10:24:30;0.85;;;0.60;;
64498;SDS011;51087;55.718;21.122;2022-09-23T10:27:01;0.65;;;0.63;;
64498;SDS011;51087;55.718;21.122;2022-09-23T10:34:55;1.48;;;0.80;;
64498;SDS011;51087;55.718;21.122;2022-09-23T10:40:13;0.80;;;0.70;;
64498;SDS011;51087;55.718;21.122;2022-09-23T10:43:10;0.95;;;0.63;;
64498;SDS011;51087;55.718;21.122;2022-09-23T10:46:29;2.58;;;0.80;;
64498;SDS011;51087;55.718;21.122;2022-09-23T11:00:12;2.13;;;0.60;;
64498;SDS011;51087;55.718;21.122;2022-09-23T11:02:56;1.00;;;0.65;;
64498;SDS011;51087;55.718;21.122;2022-09-23T11:11:31;2.03;;;0.50;;
64498;SDS011;51087;55.718;21.122;2022-09-23T11:24:54;2.00;;;0.57;;
64498;SDS011;51087;55.718;21.122;2022-09-23T11:30:29;1.05;;;0.60;;
64498;SDS011;51087;55.718;21.122;2022-09-23T11:33:13;1.95;;;0.70;;
64498;SDS011;51087;55.718;21.122;2022-09-23T11:36:07;5.27;;;0.63;;
64498;SDS011;51087;55.718;21.122;2022-09-23T11:38:41;0.63;;;0.40;;
64498;SDS011;51087;55.718;21.122;2022-09-23T11:41:29;3.90;;;0.60;;
64498;SDS011;51087;55.718;21.122;2022-09-23T11:44:00;3.80;;;0.90;;
64498;SDS011;51087;55.718;21.122;2022-09-23T11:49:21;3.42;;;0.60;;
64498;SDS011;51087;55.718;21.122;2022-09-23T11:55:02;1.23;;;0.68;;
64498;SDS011;51087;55.718;21.122;2022-09-23T11:57:47;0.60;;;0.60;;
64498;SDS011;51087;55.718;21.122;2022-09-23T12:00:20;4.47;;;0.63;;
64498;SDS011;51087;55.718;21.122;2022-09-23T12:05:22;0.70;;;0.70;;
64498;SDS011;51087;55.718;21.122;2022-09-23T12:10:26;2.38;;;0.70;;
64498;SDS011;51087;55.718;21.122;2022-09-23T12:13:09;0.77;;;0.50;;
64498;SDS011;51087;55.718;21.122;2022-09-23T12:21:23;0.67;;;0.63;;
64498;SDS011;51087;55.718;21.122;2022-09-23T12:26:59;5.07;;;0.82;;
64498;SDS011;51087;55.718;21.122;2022-09-23T12:29:30;1.80;;;0.80;;
64498;SDS011;51087;55.718;21.122;2022-09-23T12:31:59;3.55;;;0.73;;
64498;SDS011;51087;55.718;21.122;2022-09-23T12:34:45;3.15;;;0.85;;
64498;SDS011;51087;55.718;21.122;2022-09-23T12:37:19;5.68;;;1.70;;
64498;SDS011;51087;55.718;21.122;2022-09-23T12:39:49;2.28;;;0.70;;
64498;SDS011;51087;55.718;21.122;2022-09-23T12:42:18;3.58;;;0.80;;
64498;SDS011;51087;55.718;21.122;2022-09-23T12:44:46;4.03;;;0.60;;
64498;SDS011;51087;55.718;21.122;2022-09-23T12:49:40;1.58;;;0.70;;
64498;SDS011;51087;55.718;21.122;2022-09-23T12:54:36;3.28;;;0.80;;
64498;SDS011;51087;55.718;21.122;2022-09-23T12:57:09;3.28;;;0.70;;
64498;SDS011;51087;55.718;21.122;2022-09-23T12:59:58;3.08;;;0.68;;
64498;SDS011;51087;55.718;21.122;2022-09-23T13:07:43;1.55;;;0.55;;
64498;SDS011;51087;55.718;21.122;2022-09-23T13:10:45;0.77;;;0.50;;
64498;SDS011;51087;55.718;21.122;2022-09-23T13:13:35;4.57;;;1.25;;
64498;SDS011;51087;55.718;21.122;2022-09-23T13:16:25;2.33;;;0.80;;
64498;SDS011;51087;55.718;21.122;2022-09-23T13:26:37;6.00;;;1.73;;
64498;SDS011;51087;55.718;21.122;2022-09-23T13:29:24;5.15;;;0.50;;
64498;SDS011;51087;55.718;21.122;2022-09-23T13:31:56;2.83;;;0.73;;
64498;SDS011;51087;55.718;21.122;2022-09-23T13:34:22;7.47;;;0.80;;
64498;SDS011;51087;55.718;21.122;2022-09-23T13:36:52;5.78;;;1.15;;
64498;SDS011;51087;55.718;21.122;2022-09-23T13:39:27;9.32;;;1.00;;
64498;SDS011;51087;55.718;21.122;2022-09-23T13:41:57;10.32;;;0.80;;
64498;SDS011;51087;55.718;21.122;2022-09-23T13:46:54;0.75;;;0.60;;
64498;SDS011;51087;55.718;21.122;2022-09-23T13:49:23;1.25;;;0.40;;
64498;SDS011;51087;55.718;21.122;2022-09-23T13:51:51;1.85;;;0.63;;
64498;SDS011;51087;55.718;21.122;2022-09-23T13:54:28;1.17;;;0.50;;
64498;SDS011;51087;55.718;21.122;2022-09-23T13:56:56;1.83;;;0.52;;
64498;SDS011;51087;55.718;21.122;2022-09-23T13:59:28;0.68;;;0.50;;
64498;SDS011;51087;55.718;21.122;2022-09-23T14:02:09;1.70;;;0.43;;
64498;SDS011;51087;55.718;21.122;2022-09-23T14:04:34;4.03;;;0.82;;
64498;SDS011;51087;55.718;21.122;2022-09-23T14:07:00;1.10;;;0.60;;
64498;SDS011;51087;55.718;21.122;2022-09-23T14:09:26;1.70;;;0.60;;
64498;SDS011;51087;55.718;21.122;2022-09-23T14:11:53;0.98;;;0.40;;
64498;SDS011;51087;55.718;21.122;2022-09-23T14:14:22;0.73;;;0.60;;
64498;SDS011;51087;55.718;21.122;2022-09-23T14:16:48;3.60;;;2.33;;
64498;SDS011;51087;55.718;21.122;2022-09-23T14:19:16;1.25;;;1.10;;
64498;SDS011;51087;55.718;21.122;2022-09-23T14:21:46;1.38;;;0.60;;
64498;SDS011;51087;55.718;21.122;2022-09-23T14:24:16;1.35;;;0.60;;
64498;SDS011;51087;55.718;21.122;2022-09-23T14:26:49;1.08;;;0.40;;
64498;SDS011;51087;55.718;21.122;2022-09-23T14:29:26;2.08;;;0.50;;
64498;SDS011;51087;55.718;21.122;2022-09-23T14:31:57;1.65;;;0.73;;
64498;SDS011;51087;55.718;21.122;2022-09-23T14:34:40;5.63;;;0.90;;
64498;SDS011;51087;55.718;21.122;2022-09-23T14:40:00;1.23;;;0.60;;
64498;SDS011;51087;55.718;21.122;2022-09-23T14:42:26;3.40;;;1.45;;
64498;SDS011;51087;55.718;21.122;2022-09-23T14:44:54;12.20;;;1.00;;
64498;SDS011;51087;55.718;21.122;2022-09-23T14:47:20;5.18;;;1.10;;
64498;SDS011;51087;55.718;21.122;2022-09-23T14:49:46;0.63;;;0.63;;
64498;SDS011;51087;55.718;21.122;2022-09-23T14:52:33;2.42;;;0.70;;
64498;SDS011;51087;55.718;21.122;2022-09-23T14:54:58;0.70;;;0.70;;
64498;SDS011;51087;55.718;21.122;2022-09-23T15:00:07;5.15;;;0.75;;
64498;SDS011;51087;55.718;21.122;2022-09-23T15:02:37;3.15;;;0.85;;
64498;SDS011;51087;55.718;21.122;2022-09-23T15:05:16;1.42;;;0.68;;
64498;SDS011;51087;55.718;21.122;2022-09-23T15:07:43;2.33;;;0.73;;
64498;SDS011;51087;55.718;21.122;2022-09-23T15:10:17;0.50;;;0.50;;
64498;SDS011;51087;55.718;21.122;2022-09-23T15:12:47;0.47;;;0.47;;
64498;SDS011;51087;55.718;21.122;2022-09-23T15:15:14;3.10;;;0.70;;
64498;SDS011;51087;55.718;21.122;2022-09-23T15:17:42;1.17;;;0.70;;
64498;SDS011;51087;55.718;21.122;2022-09-23T15:22:43;3.58;;;0.93;;
64498;SDS011;51087;55.718;21.122;2022-09-23T15:25:17;4.43;;;0.90;;
64498;SDS011;51087;55.718;21.122;2022-09-23T15:30:35;13.55;;;1.10;;
64498;SDS011;51087;55.718;21.122;2022-09-23T15:33:00;6.82;;;1.20;;
64498;SDS011;51087;55.718;21.122;2022-09-23T15:35:26;4.03;;;0.82;;
64498;SDS011;51087;55.718;21.122;2022-09-23T15:37:56;3.88;;;0.70;;
64498;SDS011;51087;55.718;21.122;2022-09-23T15:40:28;5.13;;;0.93;;
64498;SDS011;51087;55.718;21.122;2022-09-23T15:42:59;4.40;;;0.95;;
64498;SDS011;51087;55.718;21.122;2022-09-23T15:45:55;7.30;;;1.38;;
64498;SDS011;51087;55.718;21.122;2022-09-23T15:48:24;13.35;;;1.10;;
64498;SDS011;51087;55.718;21.122;2022-09-23T15:50:53;8.98;;;1.15;;
64498;SDS011;51087;55.718;21.122;2022-09-23T15:53:22;8.55;;;1.38;;
64498;SDS011;51087;55.718;21.122;2022-09-23T15:55:50;20.15;;;1.73;;
64498;SDS011;51087;55.718;21.122;2022-09-23T15:58:18;17.40;;;1.55;;
64498;SDS011;51087;55.718;21.122;2022-09-23T16:00:45;10.70;;;1.30;;
64498;SDS011;51087;55.718;21.122;2022-09-23T16:03:15;8.20;;;1.00;;
64498;SDS011;51087;55.718;21.122;2022-09-23T16:05:42;9.75;;;1.25;;
64498;SDS011;51087;55.718;21.122;2022-09-23T16:08:10;14.85;;;2.10;;
64498;SDS011;51087;55.718;21.122;2022-09-23T16:10:37;10.95;;;1.27;;
64498;SDS011;51087;55.718;21.122;2022-09-23T16:13:03;17.15;;;1.70;;
64498;SDS011;51087;55.718;21.122;2022-09-23T16:15:32;18.35;;;2.25;;
64498;SDS011;51087;55.718;21.122;2022-09-23T16:17:58;18.80;;;1.88;;
64498;SDS011;51087;55.718;21.122;2022-09-23T16:20:24;28.25;;;2.30;;
64498;SDS011;51087;55.718;21.122;2022-09-23T16:22:55;21.83;;;2.97;;
64498;SDS011;51087;55.718;21.122;2022-09-23T16:25:23;19.27;;;2.03;;
64498;SDS011;51087;55.718;21.122;2022-09-23T16:27:52;11.43;;;2.78;;
64498;SDS011;51087;55.718;21.122;2022-09-23T16:30:22;24.73;;;2.00;;
64498;SDS011;51087;55.718;21.122;2022-09-23T16:32:49;21.50;;;1.80;;
64498;SDS011;51087;55.718;21.122;2022-09-23T16:35:16;12.93;;;1.83;;
64498;SDS011;51087;55.718;21.122;2022-09-23T16:37:43;15.65;;;1.95;;
64498;SDS011;51087;55.718;21.122;2022-09-23T16:40:11;9.25;;;1.90;;
64498;SDS011;51087;55.718;21.122;2022-09-23T16:42:40;13.63;;;2.38;;
64498;SDS011;51087;55.718;21.122;2022-09-23T16:45:06;10.60;;;1.55;;
64498;SDS011;51087;55.718;21.122;2022-09-23T16:47:32;10.45;;;1.60;;
64498;SDS011;51087;55.718;21.122;2022-09-23T16:49:58;14.77;;;1.88;;
64498;SDS011;51087;55.718;21.122;2022-09-23T16:52:23;12.27;;;1.60;;
64498;SDS011;51087;55.718;21.122;2022-09-23T16:54:48;10.20;;;1.40;;
64498;SDS011;51087;55.718;21.122;2022-09-23T16:57:14;6.90;;;1.40;;
64498;SDS011;51087;55.718;21.122;2022-09-23T16:59:40;7.75;;;1.20;;
64498;SDS011;51087;55.718;21.122;2022-09-23T17:02:24;5.10;;;2.15;;
64498;SDS011;51087;55.718;21.122;2022-09-23T17:05:08;4.03;;;2.25;;
64498;SDS011;51087;55.718;21.122;2022-09-23T17:07:34;13.38;;;1.80;;
64498;SDS011;51087;55.718;21.122;2022-09-23T17:10:00;3.78;;;1.80;;
64498;SDS011;51087;55.718;21.122;2022-09-23T17:12:29;3.13;;;1.88;;
64498;SDS011;51087;55.718;21.122;2022-09-23T17:14:57;16.30;;;6.00;;
64498;SDS011;51087;55.718;21.122;2022-09-23T17:17:23;18.83;;;8.20;;
64498;SDS011;51087;55.718;21.122;2022-09-23T17:19:48;13.15;;;6.40;;
64498;SDS011;51087;55.718;21.122;2022-09-23T17:22:14;18.48;;;6.57;;
64498;SDS011;51087;55.718;21.122;2022-09-23T17:24:39;21.13;;;9.00;;